createdAt,value
2019-03-06T00:02:13.646Z,6.07
2019-03-06T00:04:40.288Z,6.17
2019-03-06T00:07:07.203Z,6.77
2019-03-06T00:09:33.848Z,6.67
2019-03-06T00:12:00.501Z,7.33
2019-03-06T00:14:27.093Z,7.13
2019-03-06T00:16:54.553Z,6.70
2019-03-06T00:19:21.122Z,6.70
2019-03-06T00:21:47.846Z,6.57
2019-03-06T00:24:14.616Z,7.73
2019-03-06T00:26:41.387Z,7.17
2019-03-06T00:29:08.072Z,7.13
2019-03-06T00:31:35.014Z,6.60
2019-03-06T00:34:01.666Z,9.80
2019-03-06T00:36:30.392Z,9.20
2019-03-06T00:38:57.256Z,7.60
2019-03-06T00:41:25.792Z,6.27
2019-03-06T00:43:52.413Z,6.77
2019-03-06T00:46:19.129Z,7.00
2019-03-06T00:48:45.727Z,7.07
2019-03-06T00:51:12.409Z,6.47
2019-03-06T00:53:39.132Z,7.43
2019-03-06T00:56:06.026Z,7.40
2019-03-06T00:58:32.799Z,6.47
2019-03-06T01:00:59.579Z,8.03
2019-03-06T01:03:26.311Z,6.77
2019-03-06T01:05:53.214Z,7.50
2019-03-06T01:08:20.091Z,6.53
2019-03-06T01:10:46.891Z,7.03
2019-03-06T01:13:13.494Z,7.43
2019-03-06T01:15:40.289Z,8.20
2019-03-06T01:18:06.995Z,8.10
2019-03-06T01:20:33.885Z,8.87
2019-03-06T01:23:00.657Z,7.77
2019-03-06T01:25:27.430Z,7.97
2019-03-06T01:27:54.437Z,7.87
2019-03-06T01:30:25.559Z,6.80
2019-03-06T01:32:54.301Z,7.57
2019-03-06T01:35:22.803Z,8.17
2019-03-06T01:37:51.390Z,7.00
2019-03-06T01:40:20.309Z,7.70
2019-03-06T01:42:48.925Z,7.93
2019-03-06T01:45:15.815Z,7.20
2019-03-06T01:47:42.399Z,7.63
2019-03-06T01:50:10.467Z,8.70
2019-03-06T01:52:37.046Z,7.77
2019-03-06T01:55:09.384Z,8.20
2019-03-06T01:57:36.113Z,8.37
2019-03-06T02:00:08.051Z,8.00
2019-03-06T02:02:34.928Z,7.90
2019-03-06T02:05:01.636Z,8.63
2019-03-06T02:07:28.890Z,9.80
2019-03-06T02:09:55.860Z,8.80
2019-03-06T02:12:22.642Z,9.00
2019-03-06T02:14:49.451Z,9.13
2019-03-06T02:17:16.355Z,7.67
2019-03-06T02:19:43.112Z,7.30
2019-03-06T02:22:10.015Z,8.37
2019-03-06T02:24:36.697Z,10.80
2019-03-06T02:27:03.514Z,7.30
2019-03-06T02:29:30.132Z,6.63
2019-03-06T02:31:56.917Z,8.30
2019-03-06T02:34:23.862Z,8.17
2019-03-06T02:36:50.610Z,8.50
2019-03-06T02:39:17.276Z,7.60
2019-03-06T02:41:43.849Z,7.80
2019-03-06T02:44:11.602Z,7.50
2019-03-06T02:46:40.086Z,7.70
2019-03-06T02:49:06.820Z,7.70
2019-03-06T02:51:33.677Z,8.80
2019-03-06T02:54:00.418Z,8.07
2019-03-06T02:57:23.532Z,7.20
2019-03-06T02:59:52.148Z,8.20
2019-03-06T03:02:20.839Z,7.90
2019-03-06T03:04:49.313Z,7.80
2019-03-06T03:07:15.894Z,8.83
2019-03-06T03:09:42.672Z,9.00
2019-03-06T03:12:11.245Z,8.50
2019-03-06T03:14:38.126Z,8.73
2019-03-06T03:17:06.047Z,8.67
2019-03-06T03:19:32.919Z,5.77
2019-03-06T03:21:59.914Z,4.30
2019-03-06T03:24:26.503Z,3.70
2019-03-06T03:26:53.124Z,3.40
2019-03-06T03:29:19.853Z,2.53
2019-03-06T03:31:46.570Z,2.17
2019-03-06T03:34:13.458Z,2.10
2019-03-06T03:36:40.205Z,1.80
2019-03-06T03:39:07.438Z,1.70
2019-03-06T03:41:34.676Z,1.47
2019-03-06T03:44:01.257Z,1.20
2019-03-06T03:46:28.121Z,0.93
2019-03-06T03:48:54.698Z,0.90
2019-03-06T03:51:21.677Z,0.93
2019-03-06T03:53:48.649Z,0.70
2019-03-06T03:56:15.327Z,0.80
2019-03-06T03:58:42.096Z,0.90
2019-03-06T04:01:08.954Z,0.93
2019-03-06T04:03:35.537Z,0.80
2019-03-06T04:06:02.128Z,1.00
2019-03-06T04:08:28.757Z,1.00
2019-03-06T04:10:55.400Z,0.70
2019-03-06T04:13:22.059Z,0.90
2019-03-06T04:15:48.914Z,0.87
2019-03-06T04:18:15.494Z,0.90
2019-03-06T04:20:42.269Z,0.87
2019-03-06T04:23:09.128Z,0.80
2019-03-06T04:25:35.905Z,1.13
2019-03-06T04:28:02.666Z,1.07
2019-03-06T04:30:29.301Z,1.10
2019-03-06T04:32:55.979Z,0.80
2019-03-06T04:35:22.715Z,0.90
2019-03-06T04:37:49.765Z,0.80
2019-03-06T04:40:16.995Z,0.90
2019-03-06T04:42:43.787Z,0.97
2019-03-06T04:45:15.031Z,0.90
2019-03-06T04:47:41.609Z,1.00
2019-03-06T04:50:11.915Z,1.10
2019-03-06T04:52:40.220Z,1.10
2019-03-06T04:55:09.418Z,1.10
2019-03-06T04:57:37.325Z,1.50
2019-03-06T05:00:09.654Z,1.20
2019-03-06T05:02:36.513Z,1.70
2019-03-06T05:05:04.009Z,1.77
2019-03-06T05:07:30.577Z,1.40
2019-03-06T05:09:57.216Z,1.77
2019-03-06T05:12:23.786Z,1.40
2019-03-06T05:14:50.420Z,1.37
2019-03-06T05:17:18.979Z,1.40
2019-03-06T05:19:46.103Z,1.30
2019-03-06T05:22:12.771Z,1.60
2019-03-06T05:24:39.531Z,1.80
2019-03-06T05:27:06.447Z,1.80
2019-03-06T05:29:33.033Z,1.70
2019-03-06T05:32:05.322Z,1.90
2019-03-06T05:34:32.228Z,1.80
2019-03-06T05:37:04.587Z,1.67
2019-03-06T05:39:31.173Z,1.63
2019-03-06T05:41:57.806Z,2.00
2019-03-06T05:44:24.730Z,1.60
2019-03-06T05:46:51.638Z,2.03
2019-03-06T05:49:18.228Z,1.90
2019-03-06T05:51:44.984Z,2.00
2019-03-06T05:54:11.598Z,2.17
2019-03-06T05:56:38.159Z,2.20
2019-03-06T05:59:06.076Z,2.13
2019-03-06T06:01:32.915Z,2.27
2019-03-06T06:03:59.492Z,2.17
2019-03-06T06:06:26.056Z,2.47
2019-03-06T06:08:52.767Z,3.10
2019-03-06T06:11:19.486Z,3.63
2019-03-06T06:13:46.079Z,3.37
2019-03-06T06:16:12.731Z,3.20
2019-03-06T06:18:39.558Z,2.97
2019-03-06T06:21:08.238Z,2.80
2019-03-06T06:23:36.746Z,3.20
2019-03-06T06:26:03.441Z,3.37
2019-03-06T06:28:29.984Z,3.67
2019-03-06T06:30:56.651Z,3.53
2019-03-06T06:33:23.284Z,3.97
2019-03-06T06:35:49.904Z,3.90
2019-03-06T06:38:16.507Z,3.80
2019-03-06T06:40:43.063Z,3.70
2019-03-06T06:43:09.704Z,3.63
2019-03-06T06:45:37.899Z,4.50
2019-03-06T06:48:09.309Z,3.80
2019-03-06T06:50:41.844Z,3.63
2019-03-06T06:53:12.578Z,4.00
2019-03-06T06:55:45.511Z,4.07
2019-03-06T06:58:17.858Z,3.90
2019-03-06T07:00:52.232Z,3.73
2019-03-06T07:03:26.793Z,4.17
2019-03-06T07:05:55.490Z,4.10
2019-03-06T07:08:24.032Z,3.93
2019-03-06T07:10:52.757Z,4.20
2019-03-06T07:13:21.251Z,4.00
2019-03-06T07:15:49.726Z,4.83
2019-03-06T07:18:18.355Z,4.27
2019-03-06T07:20:47.099Z,4.17
2019-03-06T07:23:15.905Z,4.97
2019-03-06T07:25:44.647Z,4.60
2019-03-06T07:28:13.230Z,3.50
2019-03-06T07:30:41.854Z,4.10
2019-03-06T07:33:10.931Z,3.53
2019-03-06T07:35:45.287Z,3.57
2019-03-06T07:38:12.088Z,4.00
2019-03-06T07:40:41.249Z,4.07
2019-03-06T07:43:09.831Z,3.63
2019-03-06T07:45:38.677Z,4.03
2019-03-06T07:48:07.260Z,4.40
2019-03-06T07:50:35.872Z,3.97
2019-03-06T07:53:10.181Z,3.87
2019-03-06T07:55:38.774Z,3.87
2019-03-06T07:58:11.242Z,3.90
2019-03-06T08:00:37.916Z,3.53
2019-03-06T08:03:05.989Z,3.30
2019-03-06T08:05:32.598Z,3.20
2019-03-06T08:07:59.264Z,3.60
2019-03-06T08:10:28.012Z,3.60
2019-03-06T08:12:56.806Z,3.23
2019-03-06T08:15:25.709Z,3.87
2019-03-06T08:17:52.355Z,3.53
2019-03-06T08:20:21.185Z,3.80
2019-03-06T08:22:49.683Z,3.50
2019-03-06T08:25:18.492Z,3.50
2019-03-06T08:27:45.568Z,3.73
2019-03-06T08:30:12.625Z,3.80
2019-03-06T08:32:39.481Z,3.37
2019-03-06T08:35:10.328Z,3.17
2019-03-06T08:37:37.299Z,3.60
2019-03-06T08:40:08.436Z,3.73
2019-03-06T08:42:35.625Z,3.60
2019-03-06T08:45:07.395Z,3.10
2019-03-06T08:47:36.401Z,3.53
2019-03-06T08:50:09.209Z,3.30
2019-03-06T08:52:37.906Z,3.27
2019-03-06T08:55:11.062Z,3.50
2019-03-06T08:57:40.020Z,2.80
2019-03-06T09:00:14.310Z,3.43
2019-03-06T09:02:43.637Z,2.67
2019-03-06T09:05:12.670Z,3.70
2019-03-06T09:07:41.663Z,3.60
2019-03-06T09:10:11.336Z,3.63
2019-03-06T09:12:40.086Z,3.47
2019-03-06T09:15:13.496Z,3.60
2019-03-06T09:17:42.158Z,3.73
2019-03-06T09:20:11.305Z,4.57
2019-03-06T09:22:39.893Z,4.50
2019-03-06T09:25:09.583Z,4.77
2019-03-06T09:27:38.277Z,5.03
2019-03-06T09:30:15.964Z,6.63
2019-03-06T09:32:42.367Z,7.07
2019-03-06T09:35:12.291Z,7.90
2019-03-06T09:37:41.011Z,6.53
2019-03-06T09:40:10.064Z,6.57
2019-03-06T09:42:38.991Z,7.50
2019-03-06T09:45:09.603Z,7.40
2019-03-06T09:47:38.127Z,6.67
2019-03-06T09:50:10.832Z,6.73
2019-03-06T09:52:39.497Z,6.50
2019-03-06T09:55:10.418Z,7.37
2019-03-06T09:57:39.264Z,6.37
2019-03-06T10:00:12.575Z,7.40
2019-03-06T10:02:41.178Z,8.07
2019-03-06T10:05:10.196Z,8.40
2019-03-06T10:07:38.795Z,8.00
2019-03-06T10:10:10.392Z,8.27
2019-03-06T10:12:47.361Z,9.10
2019-03-06T10:15:11.805Z,10.20
2019-03-06T10:17:40.892Z,9.60
2019-03-06T10:20:13.448Z,10.83
2019-03-06T10:22:40.121Z,11.20
2019-03-06T10:25:07.603Z,10.70
2019-03-06T10:27:34.398Z,10.10
2019-03-06T10:30:03.741Z,11.70
2019-03-06T10:32:31.725Z,10.73
2019-03-06T10:34:58.438Z,12.80
2019-03-06T10:37:25.144Z,13.00
2019-03-06T10:39:53.183Z,12.97
2019-03-06T10:42:19.907Z,14.47
2019-03-06T10:44:46.829Z,13.97
2019-03-06T10:47:13.414Z,13.00
2019-03-06T10:49:41.463Z,13.37
2019-03-06T10:52:08.293Z,11.70
2019-03-06T10:54:44.320Z,12.27
2019-03-06T10:57:05.671Z,12.43
2019-03-06T10:59:32.752Z,13.20
2019-03-06T11:01:59.779Z,13.83
2019-03-06T11:04:28.693Z,14.63
2019-03-06T11:06:55.750Z,13.37
2019-03-06T11:09:24.545Z,14.50
2019-03-06T11:11:51.591Z,15.63
2019-03-06T11:14:18.386Z,16.27
2019-03-06T11:16:45.496Z,17.50
2019-03-06T11:19:13.284Z,17.07
2019-03-06T11:21:40.194Z,17.33
2019-03-06T11:24:07.465Z,16.10
2019-03-06T11:26:35.107Z,19.30
2019-03-06T11:29:07.136Z,16.43
2019-03-06T11:31:34.311Z,14.07
2019-03-06T11:34:01.331Z,15.97
2019-03-06T11:36:31.426Z,14.13
2019-03-06T11:38:58.358Z,13.17
2019-03-06T11:41:25.364Z,14.23
2019-03-06T11:43:52.366Z,13.57
2019-03-06T11:46:19.321Z,13.57
2019-03-06T11:48:46.204Z,13.03
2019-03-06T11:51:13.174Z,14.03
2019-03-06T11:53:40.103Z,13.43
2019-03-06T11:56:07.682Z,15.47
2019-03-06T11:58:34.845Z,17.30
2019-03-06T12:01:08.301Z,16.77
2019-03-06T12:03:39.026Z,14.87
2019-03-06T12:06:05.927Z,15.83
2019-03-06T12:08:33.087Z,15.60
2019-03-06T12:10:59.748Z,15.00
2019-03-06T12:13:26.588Z,15.27
2019-03-06T12:15:53.646Z,12.53
2019-03-06T12:18:22.528Z,15.23
2019-03-06T12:20:49.620Z,15.53
2019-03-06T12:23:16.732Z,14.87
2019-03-06T12:25:43.610Z,15.57
2019-03-06T12:28:13.436Z,14.97
2019-03-06T12:30:41.014Z,13.07
2019-03-06T12:33:13.849Z,13.57
2019-03-06T12:35:40.913Z,12.30
2019-03-06T12:38:07.572Z,13.43
2019-03-06T12:40:34.472Z,13.77
2019-03-06T12:43:01.421Z,13.70
2019-03-06T12:45:28.510Z,14.13
2019-03-06T12:48:00.818Z,14.03
2019-03-06T12:50:33.858Z,14.03
2019-03-06T12:53:00.754Z,13.43
2019-03-06T12:55:27.622Z,12.63
2019-03-06T12:57:59.283Z,13.43
2019-03-06T13:00:25.373Z,11.93
2019-03-06T13:02:52.665Z,11.33
2019-03-06T13:05:22.032Z,12.53
2019-03-06T13:07:48.883Z,12.33
2019-03-06T13:10:17.345Z,10.47
2019-03-06T13:12:45.506Z,10.13
2019-03-06T13:15:17.854Z,8.93
2019-03-06T13:17:44.712Z,8.40
2019-03-06T13:20:12.536Z,8.53
2019-03-06T13:22:39.792Z,8.43
2019-03-06T13:25:09.678Z,20.37
2019-03-06T13:27:37.450Z,14.60
2019-03-06T13:30:11.427Z,49.13
2019-03-06T13:32:39.926Z,13.13
2019-03-06T13:35:07.725Z,8.33
2019-03-06T13:37:34.448Z,9.00
2019-03-06T13:40:05.456Z,13.40
2019-03-06T13:42:32.326Z,17.93
2019-03-06T13:45:06.760Z,8.67
2019-03-06T13:47:34.456Z,6.67
2019-03-06T13:50:01.557Z,7.93
2019-03-06T13:52:30.343Z,8.17
2019-03-06T13:54:57.132Z,12.23
2019-03-06T13:57:23.932Z,19.77
2019-03-06T13:59:51.702Z,12.60
2019-03-06T14:02:18.762Z,7.60
2019-03-06T14:04:45.569Z,16.80
2019-03-06T14:07:12.288Z,11.07
2019-03-06T14:09:40.166Z,7.67
2019-03-06T14:12:07.053Z,7.83
2019-03-06T14:14:33.745Z,6.00
2019-03-06T14:17:00.927Z,5.63
2019-03-06T14:19:27.644Z,6.10
2019-03-06T14:21:54.691Z,6.47
2019-03-06T14:24:21.581Z,5.37
2019-03-06T14:26:48.483Z,4.60
2019-03-06T14:29:15.296Z,5.67
2019-03-06T14:31:42.788Z,5.93
2019-03-06T14:34:09.652Z,5.53
2019-03-06T14:36:36.691Z,5.53
2019-03-06T14:39:09.149Z,5.70
2019-03-06T14:41:35.916Z,4.87
2019-03-06T14:44:02.574Z,8.63
2019-03-06T14:46:29.622Z,13.43
2019-03-06T14:48:56.176Z,7.23
2019-03-06T14:51:22.929Z,5.90
2019-03-06T14:53:49.511Z,4.63
2019-03-06T14:56:16.488Z,4.50
2019-03-06T14:58:43.757Z,4.33
2019-03-06T15:01:10.572Z,4.57
2019-03-06T15:03:37.386Z,5.37
2019-03-06T15:06:04.769Z,4.27
2019-03-06T15:08:31.664Z,4.20
2019-03-06T15:10:58.351Z,3.67
2019-03-06T15:13:25.206Z,3.73
2019-03-06T15:15:52.278Z,4.23
2019-03-06T15:18:19.705Z,3.50
2019-03-06T15:20:46.498Z,3.27
2019-03-06T15:23:13.240Z,4.17
2019-03-06T15:25:40.223Z,3.60
2019-03-06T15:28:07.308Z,3.57
2019-03-06T15:30:34.236Z,4.33
2019-03-06T15:33:01.540Z,4.43
2019-03-06T15:35:28.186Z,3.60
2019-03-06T15:37:55.091Z,3.87
2019-03-06T15:40:27.504Z,4.40
2019-03-06T15:42:54.572Z,4.53
2019-03-06T15:45:22.800Z,3.73
2019-03-06T15:47:49.802Z,4.13
2019-03-06T15:50:17.665Z,4.20
2019-03-06T15:52:44.886Z,3.73
2019-03-06T15:55:14.371Z,4.00
2019-03-06T15:57:41.390Z,5.23
2019-03-06T16:00:15.002Z,3.97
2019-03-06T16:02:41.990Z,3.90
2019-03-06T16:05:14.625Z,3.47
2019-03-06T16:07:41.302Z,4.57
2019-03-06T16:10:08.562Z,3.90
2019-03-06T16:12:35.640Z,4.33
2019-03-06T16:15:06.767Z,5.63
2019-03-06T16:17:33.710Z,4.90
2019-03-06T16:20:00.396Z,4.37
2019-03-06T16:22:26.965Z,4.47
2019-03-06T16:24:53.623Z,5.10
2019-03-06T16:27:20.342Z,5.77
2019-03-06T16:29:47.131Z,6.13
2019-03-06T16:32:14.054Z,6.37
2019-03-06T16:34:42.066Z,11.53
2019-03-06T16:37:09.301Z,7.70
2019-03-06T16:39:36.117Z,8.23
2019-03-06T16:42:03.284Z,8.83
2019-03-06T16:44:29.986Z,9.87
2019-03-06T16:47:03.704Z,10.93
2019-03-06T16:49:25.416Z,9.47
2019-03-06T16:52:48.568Z,10.90
2019-03-06T16:55:17.865Z,10.90
2019-03-06T16:57:45.471Z,10.73
2019-03-06T17:00:17.366Z,10.63
2019-03-06T17:02:44.126Z,12.47
2019-03-06T17:05:16.433Z,12.23
2019-03-06T17:07:43.540Z,13.37
2019-03-06T17:10:10.942Z,14.67
2019-03-06T17:12:37.716Z,14.07
2019-03-06T17:15:07.940Z,15.67
2019-03-06T17:17:34.769Z,16.93
2019-03-06T17:20:03.070Z,16.67
2019-03-06T17:22:30.134Z,16.47
2019-03-06T17:24:57.145Z,15.83
2019-03-06T17:27:24.238Z,19.27
2019-03-06T17:29:50.967Z,17.17
2019-03-06T17:32:17.919Z,17.63
2019-03-06T17:34:45.058Z,19.97
2019-03-06T17:37:11.852Z,18.70
2019-03-06T17:39:38.706Z,21.63
2019-03-06T17:42:05.515Z,20.20
2019-03-06T17:44:32.596Z,21.37
2019-03-06T17:46:59.294Z,20.73
2019-03-06T17:49:26.167Z,19.73
2019-03-06T17:51:52.863Z,19.50
2019-03-06T17:54:21.570Z,18.50
2019-03-06T17:56:48.495Z,20.33
2019-03-06T17:59:15.253Z,21.07
2019-03-06T18:01:42.375Z,20.53
2019-03-06T18:04:11.168Z,20.43
2019-03-06T18:06:38.132Z,22.07
2019-03-06T18:09:06.102Z,22.13
2019-03-06T18:11:35.876Z,20.67
2019-03-06T18:14:06.247Z,21.50
2019-03-06T18:16:33.287Z,21.00
2019-03-06T18:19:00.468Z,21.70
2019-03-06T18:21:27.314Z,21.87
2019-03-06T18:23:54.041Z,22.63
2019-03-06T18:26:20.605Z,22.40
2019-03-06T18:28:47.481Z,22.53
2019-03-06T18:31:14.452Z,22.53
2019-03-06T18:33:46.052Z,23.90
2019-03-06T18:36:14.368Z,22.27
2019-03-06T18:38:42.115Z,21.90
2019-03-06T18:41:09.351Z,20.97
2019-03-06T18:43:36.203Z,21.17
2019-03-06T18:46:03.092Z,20.13
2019-03-06T18:48:30.140Z,21.87
2019-03-06T18:50:57.169Z,22.70
2019-03-06T18:53:24.537Z,22.70
2019-03-06T18:55:51.693Z,21.83
2019-03-06T18:58:19.217Z,22.90
2019-03-06T19:00:46.152Z,21.57
2019-03-06T19:03:13.084Z,24.37
2019-03-06T19:05:40.380Z,28.63
2019-03-06T19:08:07.515Z,25.20
2019-03-06T19:10:34.587Z,21.97
2019-03-06T19:13:01.490Z,22.97
2019-03-06T19:15:29.371Z,21.60
2019-03-06T19:17:56.723Z,20.63
2019-03-06T19:20:23.850Z,21.47
2019-03-06T19:22:53.155Z,22.43
2019-03-06T19:25:20.585Z,23.90
2019-03-06T19:27:47.922Z,22.87
2019-03-06T19:30:19.418Z,20.57
2019-03-06T19:32:46.640Z,21.27
2019-03-06T19:35:15.371Z,22.70
2019-03-06T19:37:42.791Z,22.57
2019-03-06T19:40:13.489Z,22.00
2019-03-06T19:42:41.038Z,22.07
2019-03-06T19:45:13.567Z,21.83
2019-03-06T19:47:43.250Z,23.33
2019-03-06T19:50:14.722Z,20.57
2019-03-06T19:52:41.882Z,21.60
2019-03-06T19:55:11.279Z,22.37
2019-03-06T19:57:44.034Z,22.83
2019-03-06T20:00:10.921Z,21.63
2019-03-06T20:02:38.171Z,23.17
2019-03-06T20:05:05.383Z,22.10
2019-03-06T20:07:32.457Z,21.83
2019-03-06T20:09:59.709Z,21.07
2019-03-06T20:12:26.438Z,22.70
2019-03-06T20:14:54.007Z,23.10
2019-03-06T20:17:21.045Z,22.67
2019-03-06T20:19:49.282Z,24.53
2019-03-06T20:22:16.757Z,23.63
2019-03-06T20:24:45.645Z,23.93
2019-03-06T20:27:12.628Z,25.03
2019-03-06T20:29:39.555Z,24.03
2019-03-06T20:32:06.548Z,22.77
2019-03-06T20:34:33.386Z,23.03
2019-03-06T20:37:04.082Z,22.30
2019-03-06T20:39:31.547Z,22.90
2019-03-06T20:41:58.618Z,23.43
2019-03-06T20:44:25.540Z,22.27
2019-03-06T20:46:52.372Z,21.10
2019-03-06T20:49:19.382Z,23.70
2019-03-06T20:51:47.024Z,23.07
2019-03-06T20:54:13.982Z,24.50
2019-03-06T20:56:41.088Z,21.87
2019-03-06T20:59:08.153Z,24.23
2019-03-06T21:01:36.072Z,26.33
2019-03-06T21:04:03.257Z,23.47
2019-03-06T21:06:33.438Z,25.80
2019-03-06T21:08:58.544Z,24.13
2019-03-06T21:11:26.031Z,25.00
2019-03-06T21:13:52.587Z,24.43
2019-03-06T21:16:20.022Z,23.97
2019-03-06T21:18:46.910Z,25.53
2019-03-06T21:21:15.070Z,24.63
2019-03-06T21:23:42.131Z,25.70
2019-03-06T21:26:09.077Z,24.40
2019-03-06T21:28:35.831Z,26.23
2019-03-06T21:31:02.635Z,25.50
2019-03-06T21:33:29.595Z,24.07
2019-03-06T21:35:56.382Z,24.77
2019-03-06T21:38:23.231Z,24.00
2019-03-06T21:40:50.108Z,26.20
2019-03-06T21:43:16.917Z,24.93
2019-03-06T21:45:43.644Z,24.93
2019-03-06T21:48:10.417Z,24.57
2019-03-06T21:50:37.658Z,23.20
2019-03-06T21:53:04.682Z,24.43
2019-03-06T21:55:31.602Z,24.10
2019-03-06T21:57:58.247Z,25.93
2019-03-06T22:00:25.258Z,25.57
2019-03-06T22:02:52.230Z,23.17
2019-03-06T22:05:19.247Z,23.13
2019-03-06T22:07:46.260Z,23.33
2019-03-06T22:10:16.362Z,23.07
2019-03-06T22:12:43.827Z,22.87
2019-03-06T22:15:15.184Z,24.50
2019-03-06T22:17:42.058Z,22.53
2019-03-06T22:20:12.281Z,21.83
2019-03-06T22:22:39.179Z,23.63
2019-03-06T22:25:11.701Z,23.80
2019-03-06T22:27:38.477Z,21.83
2019-03-06T22:30:10.984Z,23.07
2019-03-06T22:32:37.940Z,21.73
2019-03-06T22:35:06.202Z,22.80
2019-03-06T22:37:32.944Z,22.20
2019-03-06T22:39:59.654Z,21.90
2019-03-06T22:42:26.472Z,22.47
2019-03-06T22:44:53.081Z,23.17
2019-03-06T22:47:19.954Z,22.50
2019-03-06T22:49:46.567Z,22.70
2019-03-06T22:52:13.196Z,21.60
2019-03-06T22:54:41.144Z,21.43
2019-03-06T22:57:07.924Z,22.33
2019-03-06T22:59:35.296Z,21.07
2019-03-06T23:02:02.193Z,20.90
2019-03-06T23:04:29.613Z,20.03
2019-03-06T23:06:56.505Z,20.63
2019-03-06T23:09:23.152Z,20.70
2019-03-06T23:11:50.028Z,19.50
2019-03-06T23:14:16.823Z,18.90
2019-03-06T23:16:43.616Z,19.43
2019-03-06T23:19:10.325Z,18.67
2019-03-06T23:21:37.130Z,17.50
2019-03-06T23:24:04.018Z,18.33
2019-03-06T23:26:30.751Z,16.80
2019-03-06T23:28:57.432Z,17.13
2019-03-06T23:31:23.995Z,17.13
2019-03-06T23:33:50.777Z,17.07
2019-03-06T23:36:18.599Z,18.17
2019-03-06T23:38:45.435Z,16.33
2019-03-06T23:41:12.059Z,17.03
2019-03-06T23:43:38.750Z,15.60
2019-03-06T23:46:05.628Z,15.17
2019-03-06T23:48:32.333Z,14.77
2019-03-06T23:51:00.915Z,14.40
2019-03-06T23:53:29.641Z,15.33
2019-03-06T23:55:56.558Z,13.97
2019-03-06T23:58:23.299Z,14.70
